Pathein, Burma
Current Conditions -  °F | °C
As of 3:30 AM on Monday 22 Dec 2014 (Local Time) from VYYY Reporting Station
Clear Clear  
Wind Chill: 68°   Ceiling: Unl
Heat Index: 68°   Visibility: 4mi
Dew Point: 64°   Wind: 2mph
Humidity: 88%   Direction: 360°N
Pressure: 29.88"   Gusts: NA
Location:  16.78°N, 94.73°E
Report Text: VYYY 212130Z 36002KT 6000 R21 /2000N NSC 20/18 Q1012 NOSIG
Loading
Personal Weather Stations






























Interactive Weather Map New forecast layout! Learn more

10-Day Weather Forecast

Advertisements
Track Severe Weather on mobile